CheckWX is a tool to help pilots better visualize weather data.  It is not intended as a substitute for an official pre-flight weather briefing.

12:04:30 UTC

EHGR METAR
Gilze Rijen Air Base Airport
Breda, The Netherlands
Current

10 mins ago

EHGR 201155Z AUTO 24009KT 210V280 9999 NCD 21/11 Q1022 BLU 23008KT 9999 SCT035 TEMPO SCT022CB
Observed
Aug-20 @ 11:55 UTC
Wind
  • 240° at 9 KTS
Visibility
10,000+ meters
Flight Rules
VFR
Cloud Levels
  • Scattered at 3,500' AGL
Temperature
21°C / 70°F
Dewpoint
11°C / 52°F
Humidity
53%
Altimeter
30.18" Hg
Pressure
1021.92 hPa
Previous

40 mins ago

EHGR 201125Z AUTO 24008KT 190V280 9999 SCT034 21/11 Q1022 BLU 23008KT 9999 SCT035 TEMPO SCT022CB
Observed
Aug-20 @ 11:25 UTC
Wind
  • 240° at 8 KTS
Visibility
10,000+ meters
Flight Rules
VFR
Cloud Levels
  • Scattered at 3,400' AGL
  • Scattered at 3,500' AGL
Temperature
21°C / 70°F
Dewpoint
11°C / 52°F
Humidity
53%
Altimeter
30.18" Hg
Pressure
1021.92 hPa
Previous

1 hour ago

EHGR 201055Z AUTO 24008KT 200V280 9999 FEW028 SCT076 20/12 Q1022 BLU 23008KT 9999 SCT030
Observed
Aug-20 @ 10:55 UTC
Wind
  • 240° at 8 KTS
Visibility
10,000+ meters
Flight Rules
VFR
Cloud Levels
  • Few at 2,800' AGL
  • Scattered at 7,600' AGL
  • Scattered at 3,000' AGL
Temperature
20°C / 68°F
Dewpoint
12°C / 54°F
Humidity
60%
Altimeter
30.18" Hg
Pressure
1021.92 hPa